sensor_id;sensor_type;location;lat;lon;timestamp;P1;durP1;ratioP1;P2;durP2;ratioP2
33579;SDS011;19909;43.644;-79.438;2023-12-20T00:00:08;0.70;;;0.38;;
33579;SDS011;19909;43.644;-79.438;2023-12-20T00:02:34;1.00;;;0.30;;
33579;SDS011;19909;43.644;-79.438;2023-12-20T00:05:02;0.70;;;0.32;;
33579;SDS011;19909;43.644;-79.438;2023-12-20T00:07:29;0.50;;;0.35;;
33579;SDS011;19909;43.644;-79.438;2023-12-20T00:09:55;1.58;;;0.60;;
33579;SDS011;19909;43.644;-79.438;2023-12-20T00:12:21;0.98;;;0.20;;
33579;SDS011;19909;43.644;-79.438;2023-12-20T00:14:47;2.28;;;0.50;;
33579;SDS011;19909;43.644;-79.438;2023-12-20T00:17:14;0.80;;;0.30;;
33579;SDS011;19909;43.644;-79.438;2023-12-20T00:19:40;0.93;;;0.30;;
33579;SDS011;19909;43.644;-79.438;2023-12-20T00:22:06;1.58;;;0.50;;
33579;SDS011;19909;43.644;-79.438;2023-12-20T00:24:33;0.55;;;0.40;;
33579;SDS011;19909;43.644;-79.438;2023-12-20T00:26:59;1.88;;;0.40;;
33579;SDS011;19909;43.644;-79.438;2023-12-20T00:29:25;1.35;;;0.50;;
33579;SDS011;19909;43.644;-79.438;2023-12-20T00:31:51;0.95;;;0.63;;
33579;SDS011;19909;43.644;-79.438;2023-12-20T00:34:17;2.05;;;0.95;;
33579;SDS011;19909;43.644;-79.438;2023-12-20T00:36:43;1.63;;;0.98;;
33579;SDS011;19909;43.644;-79.438;2023-12-20T00:39:10;1.70;;;1.27;;
33579;SDS011;19909;43.644;-79.438;2023-12-20T00:41:36;4.40;;;1.70;;
33579;SDS011;19909;43.644;-79.438;2023-12-20T00:44:02;1.83;;;1.10;;
33579;SDS011;19909;43.644;-79.438;2023-12-20T00:46:29;2.80;;;1.70;;
33579;SDS011;19909;43.644;-79.438;2023-12-20T00:48:55;2.45;;;1.42;;
33579;SDS011;19909;43.644;-79.438;2023-12-20T00:51:22;2.50;;;1.38;;
33579;SDS011;19909;43.644;-79.438;2023-12-20T00:53:49;2.28;;;1.45;;
33579;SDS011;19909;43.644;-79.438;2023-12-20T00:56:20;2.85;;;1.85;;
33579;SDS011;19909;43.644;-79.438;2023-12-20T00:58:46;14.60;;;6.78;;
33579;SDS011;19909;43.644;-79.438;2023-12-20T01:01:12;41.97;;;18.10;;
33579;SDS011;19909;43.644;-79.438;2023-12-20T01:03:39;91.82;;;40.35;;
33579;SDS011;19909;43.644;-79.438;2023-12-20T01:06:05;50.38;;;23.75;;
33579;SDS011;19909;43.644;-79.438;2023-12-20T01:08:31;34.78;;;18.83;;
33579;SDS011;19909;43.644;-79.438;2023-12-20T01:10:59;36.75;;;19.58;;
33579;SDS011;19909;43.644;-79.438;2023-12-20T01:13:26;37.97;;;18.05;;
33579;SDS011;19909;43.644;-79.438;2023-12-20T01:15:52;37.30;;;17.35;;
33579;SDS011;19909;43.644;-79.438;2023-12-20T01:18:18;41.72;;;19.40;;
33579;SDS011;19909;43.644;-79.438;2023-12-20T01:20:45;28.63;;;15.30;;
33579;SDS011;19909;43.644;-79.438;2023-12-20T01:23:11;30.95;;;16.38;;
33579;SDS011;19909;43.644;-79.438;2023-12-20T01:25:37;35.97;;;16.33;;
33579;SDS011;19909;43.644;-79.438;2023-12-20T01:28:04;31.40;;;15.68;;
33579;SDS011;19909;43.644;-79.438;2023-12-20T01:30:30;27.20;;;13.43;;
33579;SDS011;19909;43.644;-79.438;2023-12-20T01:32:57;27.50;;;13.75;;
33579;SDS011;19909;43.644;-79.438;2023-12-20T01:35:25;25.48;;;12.00;;
33579;SDS011;19909;43.644;-79.438;2023-12-20T01:37:51;24.67;;;12.65;;
33579;SDS011;19909;43.644;-79.438;2023-12-20T01:40:22;25.00;;;10.73;;
33579;SDS011;19909;43.644;-79.438;2023-12-20T01:43:09;16.25;;;8.90;;
33579;SDS011;19909;43.644;-79.438;2023-12-20T01:45:37;19.02;;;9.85;;
33579;SDS011;19909;43.644;-79.438;2023-12-20T01:48:03;17.48;;;8.70;;
33579;SDS011;19909;43.644;-79.438;2023-12-20T01:50:31;19.33;;;8.68;;
33579;SDS011;19909;43.644;-79.438;2023-12-20T01:53:00;12.27;;;6.97;;
33579;SDS011;19909;43.644;-79.438;2023-12-20T01:55:27;13.88;;;7.78;;
33579;SDS011;19909;43.644;-79.438;2023-12-20T01:57:58;15.35;;;7.90;;
33579;SDS011;19909;43.644;-79.438;2023-12-20T02:00:25;13.65;;;7.07;;
33579;SDS011;19909;43.644;-79.438;2023-12-20T02:02:53;11.90;;;6.47;;
33579;SDS011;19909;43.644;-79.438;2023-12-20T02:05:22;14.40;;;6.35;;
33579;SDS011;19909;43.644;-79.438;2023-12-20T02:07:52;12.40;;;6.18;;
33579;SDS011;19909;43.644;-79.438;2023-12-20T02:10:24;9.77;;;5.53;;
33579;SDS011;19909;43.644;-79.438;2023-12-20T02:12:51;9.63;;;6.22;;
33579;SDS011;19909;43.644;-79.438;2023-12-20T02:15:17;11.55;;;6.50;;
33579;SDS011;19909;43.644;-79.438;2023-12-20T02:17:43;13.20;;;7.13;;
33579;SDS011;19909;43.644;-79.438;2023-12-20T02:20:12;13.18;;;6.32;;
33579;SDS011;19909;43.644;-79.438;2023-12-20T02:22:38;12.55;;;7.35;;
33579;SDS011;19909;43.644;-79.438;2023-12-20T02:25:04;15.82;;;9.93;;
33579;SDS011;19909;43.644;-79.438;2023-12-20T02:27:31;16.75;;;10.13;;
33579;SDS011;19909;43.644;-79.438;2023-12-20T02:29:57;16.45;;;11.35;;
33579;SDS011;19909;43.644;-79.438;2023-12-20T02:32:26;17.27;;;12.07;;
33579;SDS011;19909;43.644;-79.438;2023-12-20T02:34:56;18.77;;;13.43;;
33579;SDS011;19909;43.644;-79.438;2023-12-20T02:37:23;15.75;;;11.73;;
33579;SDS011;19909;43.644;-79.438;2023-12-20T02:39:49;16.45;;;10.35;;
33579;SDS011;19909;43.644;-79.438;2023-12-20T02:42:16;14.55;;;9.15;;
33579;SDS011;19909;43.644;-79.438;2023-12-20T02:44:42;13.32;;;9.00;;
33579;SDS011;19909;43.644;-79.438;2023-12-20T02:47:09;15.70;;;10.02;;
33579;SDS011;19909;43.644;-79.438;2023-12-20T02:49:35;13.00;;;8.98;;
33579;SDS011;19909;43.644;-79.438;2023-12-20T02:52:01;13.23;;;8.27;;
33579;SDS011;19909;43.644;-79.438;2023-12-20T02:54:28;12.75;;;7.82;;
33579;SDS011;19909;43.644;-79.438;2023-12-20T02:56:55;8.95;;;6.53;;
33579;SDS011;19909;43.644;-79.438;2023-12-20T02:59:21;9.23;;;6.00;;
33579;SDS011;19909;43.644;-79.438;2023-12-20T03:01:47;8.95;;;5.72;;
33579;SDS011;19909;43.644;-79.438;2023-12-20T03:04:15;8.20;;;5.60;;
33579;SDS011;19909;43.644;-79.438;2023-12-20T03:06:41;9.23;;;6.00;;
33579;SDS011;19909;43.644;-79.438;2023-12-20T03:09:07;9.65;;;5.53;;
33579;SDS011;19909;43.644;-79.438;2023-12-20T03:11:33;9.70;;;5.80;;
33579;SDS011;19909;43.644;-79.438;2023-12-20T03:13:59;7.60;;;5.65;;
33579;SDS011;19909;43.644;-79.438;2023-12-20T03:16:25;8.63;;;5.85;;
33579;SDS011;19909;43.644;-79.438;2023-12-20T03:18:52;9.95;;;6.63;;
33579;SDS011;19909;43.644;-79.438;2023-12-20T03:21:18;9.82;;;6.00;;
33579;SDS011;19909;43.644;-79.438;2023-12-20T03:23:44;11.45;;;7.43;;
33579;SDS011;19909;43.644;-79.438;2023-12-20T03:26:10;10.50;;;7.15;;
33579;SDS011;19909;43.644;-79.438;2023-12-20T03:28:37;8.05;;;5.85;;
33579;SDS011;19909;43.644;-79.438;2023-12-20T03:31:03;7.97;;;5.65;;
33579;SDS011;19909;43.644;-79.438;2023-12-20T03:33:29;6.57;;;5.07;;
33579;SDS011;19909;43.644;-79.438;2023-12-20T03:35:55;6.13;;;5.10;;
33579;SDS011;19909;43.644;-79.438;2023-12-20T03:38:21;7.15;;;5.40;;
33579;SDS011;19909;43.644;-79.438;2023-12-20T03:40:51;7.32;;;4.35;;
33579;SDS011;19909;43.644;-79.438;2023-12-20T03:43:17;6.07;;;4.53;;
33579;SDS011;19909;43.644;-79.438;2023-12-20T03:45:43;6.95;;;4.20;;
33579;SDS011;19909;43.644;-79.438;2023-12-20T03:48:11;5.88;;;4.38;;
33579;SDS011;19909;43.644;-79.438;2023-12-20T03:50:37;6.32;;;4.40;;
33579;SDS011;19909;43.644;-79.438;2023-12-20T03:53:03;6.95;;;3.70;;
33579;SDS011;19909;43.644;-79.438;2023-12-20T03:55:30;4.97;;;3.65;;
33579;SDS011;19909;43.644;-79.438;2023-12-20T03:57:56;5.40;;;3.65;;
33579;SDS011;19909;43.644;-79.438;2023-12-20T04:00:22;6.80;;;3.88;;
33579;SDS011;19909;43.644;-79.438;2023-12-20T04:02:48;6.72;;;3.80;;
33579;SDS011;19909;43.644;-79.438;2023-12-20T04:05:14;5.82;;;3.45;;
33579;SDS011;19909;43.644;-79.438;2023-12-20T04:07:40;4.57;;;3.55;;
33579;SDS011;19909;43.644;-79.438;2023-12-20T04:10:07;4.80;;;3.55;;
33579;SDS011;19909;43.644;-79.438;2023-12-20T04:12:34;4.32;;;3.65;;
33579;SDS011;19909;43.644;-79.438;2023-12-20T04:15:00;4.78;;;3.55;;
33579;SDS011;19909;43.644;-79.438;2023-12-20T04:17:26;4.03;;;2.95;;
33579;SDS011;19909;43.644;-79.438;2023-12-20T04:19:53;4.95;;;3.33;;
33579;SDS011;19909;43.644;-79.438;2023-12-20T04:22:19;4.00;;;2.78;;
33579;SDS011;19909;43.644;-79.438;2023-12-20T04:24:45;3.67;;;2.50;;
33579;SDS011;19909;43.644;-79.438;2023-12-20T04:27:11;3.55;;;2.75;;
33579;SDS011;19909;43.644;-79.438;2023-12-20T04:29:38;2.65;;;2.15;;
33579;SDS011;19909;43.644;-79.438;2023-12-20T04:32:04;3.05;;;2.17;;
33579;SDS011;19909;43.644;-79.438;2023-12-20T04:34:31;4.03;;;2.47;;
33579;SDS011;19909;43.644;-79.438;2023-12-20T04:36:57;3.17;;;2.42;;
33579;SDS011;19909;43.644;-79.438;2023-12-20T04:39:23;2.58;;;2.20;;
33579;SDS011;19909;43.644;-79.438;2023-12-20T04:41:49;2.55;;;1.90;;
33579;SDS011;19909;43.644;-79.438;2023-12-20T04:44:15;2.85;;;2.00;;
33579;SDS011;19909;43.644;-79.438;2023-12-20T04:46:41;3.53;;;2.33;;
33579;SDS011;19909;43.644;-79.438;2023-12-20T04:49:08;3.17;;;2.03;;
33579;SDS011;19909;43.644;-79.438;2023-12-20T04:51:35;2.78;;;2.03;;
33579;SDS011;19909;43.644;-79.438;2023-12-20T04:54:01;2.90;;;2.00;;
33579;SDS011;19909;43.644;-79.438;2023-12-20T04:56:28;2.90;;;2.10;;
33579;SDS011;19909;43.644;-79.438;2023-12-20T04:58:54;2.33;;;1.83;;
33579;SDS011;19909;43.644;-79.438;2023-12-20T05:01:21;2.05;;;1.77;;
33579;SDS011;19909;43.644;-79.438;2023-12-20T05:03:47;1.75;;;1.48;;
33579;SDS011;19909;43.644;-79.438;2023-12-20T05:06:13;2.10;;;1.58;;
33579;SDS011;19909;43.644;-79.438;2023-12-20T05:08:40;1.90;;;1.38;;
33579;SDS011;19909;43.644;-79.438;2023-12-20T05:11:06;1.45;;;1.35;;
33579;SDS011;19909;43.644;-79.438;2023-12-20T05:13:32;2.33;;;1.50;;
33579;SDS011;19909;43.644;-79.438;2023-12-20T05:15:58;4.05;;;1.38;;
33579;SDS011;19909;43.644;-79.438;2023-12-20T05:18:24;1.50;;;1.25;;
33579;SDS011;19909;43.644;-79.438;2023-12-20T05:20:50;1.52;;;1.20;;
33579;SDS011;19909;43.644;-79.438;2023-12-20T05:23:18;2.35;;;1.33;;
33579;SDS011;19909;43.644;-79.438;2023-12-20T05:25:45;2.22;;;1.10;;
33579;SDS011;19909;43.644;-79.438;2023-12-20T05:28:11;2.80;;;1.73;;
33579;SDS011;19909;43.644;-79.438;2023-12-20T05:30:38;2.22;;;1.50;;
33579;SDS011;19909;43.644;-79.438;2023-12-20T05:33:04;2.33;;;1.40;;
33579;SDS011;19909;43.644;-79.438;2023-12-20T05:35:31;1.60;;;1.20;;
33579;SDS011;19909;43.644;-79.438;2023-12-20T05:37:57;2.10;;;1.10;;
33579;SDS011;19909;43.644;-79.438;2023-12-20T05:40:23;1.92;;;1.17;;
33579;SDS011;19909;43.644;-79.438;2023-12-20T05:42:49;1.48;;;1.15;;
33579;SDS011;19909;43.644;-79.438;2023-12-20T05:45:15;1.60;;;1.10;;
33579;SDS011;19909;43.644;-79.438;2023-12-20T05:47:42;1.20;;;1.10;;
33579;SDS011;19909;43.644;-79.438;2023-12-20T05:50:08;1.30;;;1.00;;
33579;SDS011;19909;43.644;-79.438;2023-12-20T05:52:34;1.17;;;1.00;;
33579;SDS011;19909;43.644;-79.438;2023-12-20T05:55:00;1.38;;;0.93;;
33579;SDS011;19909;43.644;-79.438;2023-12-20T05:57:27;2.10;;;1.10;;
33579;SDS011;19909;43.644;-79.438;2023-12-20T05:59:53;1.35;;;1.20;;
33579;SDS011;19909;43.644;-79.438;2023-12-20T06:02:20;1.77;;;1.20;;
33579;SDS011;19909;43.644;-79.438;2023-12-20T06:04:46;0.85;;;0.85;;
33579;SDS011;19909;43.644;-79.438;2023-12-20T06:07:13;1.67;;;1.10;;
33579;SDS011;19909;43.644;-79.438;2023-12-20T06:09:39;1.48;;;1.10;;
33579;SDS011;19909;43.644;-79.438;2023-12-20T06:12:06;1.40;;;1.02;;
33579;SDS011;19909;43.644;-79.438;2023-12-20T06:14:33;1.40;;;0.90;;
33579;SDS011;19909;43.644;-79.438;2023-12-20T06:17:00;2.97;;;1.20;;
33579;SDS011;19909;43.644;-79.438;2023-12-20T06:19:27;1.20;;;0.93;;
33579;SDS011;19909;43.644;-79.438;2023-12-20T06:21:53;1.27;;;1.08;;
33579;SDS011;19909;43.644;-79.438;2023-12-20T06:24:20;1.27;;;1.02;;
33579;SDS011;19909;43.644;-79.438;2023-12-20T06:26:46;1.20;;;0.98;;
33579;SDS011;19909;43.644;-79.438;2023-12-20T06:29:13;1.40;;;0.90;;
33579;SDS011;19909;43.644;-79.438;2023-12-20T06:31:39;0.95;;;0.80;;
33579;SDS011;19909;43.644;-79.438;2023-12-20T06:34:06;0.85;;;0.75;;
33579;SDS011;19909;43.644;-79.438;2023-12-20T06:36:32;1.13;;;0.90;;
33579;SDS011;19909;43.644;-79.438;2023-12-20T06:38:58;2.35;;;0.90;;
33579;SDS011;19909;43.644;-79.438;2023-12-20T06:41:24;1.25;;;0.75;;
33579;SDS011;19909;43.644;-79.438;2023-12-20T06:43:51;1.17;;;0.80;;
33579;SDS011;19909;43.644;-79.438;2023-12-20T06:46:18;1.25;;;0.85;;
33579;SDS011;19909;43.644;-79.438;2023-12-20T06:48:44;2.70;;;1.05;;
33579;SDS011;19909;43.644;-79.438;2023-12-20T06:51:14;1.25;;;0.90;;
33579;SDS011;19909;43.644;-79.438;2023-12-20T06:53:42;1.10;;;0.80;;
33579;SDS011;19909;43.644;-79.438;2023-12-20T06:56:10;2.08;;;1.10;;
33579;SDS011;19909;43.644;-79.438;2023-12-20T06:58:37;1.17;;;0.98;;
33579;SDS011;19909;43.644;-79.438;2023-12-20T07:01:04;1.05;;;0.75;;
33579;SDS011;19909;43.644;-79.438;2023-12-20T07:03:30;1.65;;;1.08;;
33579;SDS011;19909;43.644;-79.438;2023-12-20T07:05:56;2.53;;;1.00;;
33579;SDS011;19909;43.644;-79.438;2023-12-20T07:08:23;1.23;;;0.95;;
33579;SDS011;19909;43.644;-79.438;2023-12-20T07:10:49;1.08;;;0.80;;
33579;SDS011;19909;43.644;-79.438;2023-12-20T07:13:15;1.05;;;0.75;;
33579;SDS011;19909;43.644;-79.438;2023-12-20T07:15:41;1.77;;;0.82;;
33579;SDS011;19909;43.644;-79.438;2023-12-20T07:18:07;1.25;;;0.75;;
33579;SDS011;19909;43.644;-79.438;2023-12-20T07:20:34;1.20;;;0.93;;
33579;SDS011;19909;43.644;-79.438;2023-12-20T07:23:01;1.52;;;0.70;;
33579;SDS011;19909;43.644;-79.438;2023-12-20T07:25:27;1.23;;;0.80;;
33579;SDS011;19909;43.644;-79.438;2023-12-20T07:27:53;1.20;;;0.70;;
33579;SDS011;19909;43.644;-79.438;2023-12-20T07:30:19;0.80;;;0.55;;
33579;SDS011;19909;43.644;-79.438;2023-12-20T07:32:46;1.35;;;0.95;;
33579;SDS011;19909;43.644;-79.438;2023-12-20T07:35:12;1.90;;;1.02;;
33579;SDS011;19909;43.644;-79.438;2023-12-20T07:37:39;1.10;;;0.80;;
33579;SDS011;19909;43.644;-79.438;2023-12-20T07:40:05;1.33;;;0.90;;
33579;SDS011;19909;43.644;-79.438;2023-12-20T07:42:32;1.00;;;0.70;;
33579;SDS011;19909;43.644;-79.438;2023-12-20T07:44:58;0.82;;;0.60;;
33579;SDS011;19909;43.644;-79.438;2023-12-20T07:47:24;1.30;;;0.85;;
33579;SDS011;19909;43.644;-79.438;2023-12-20T07:49:51;0.95;;;0.80;;
33579;SDS011;19909;43.644;-79.438;2023-12-20T07:52:17;1.10;;;0.73;;
33579;SDS011;19909;43.644;-79.438;2023-12-20T07:54:51;1.23;;;0.50;;
33579;SDS011;19909;43.644;-79.438;2023-12-20T07:57:17;1.00;;;0.55;;
33579;SDS011;19909;43.644;-79.438;2023-12-20T07:59:43;0.90;;;0.70;;
33579;SDS011;19909;43.644;-79.438;2023-12-20T08:02:10;0.70;;;0.57;;
33579;SDS011;19909;43.644;-79.438;2023-12-20T08:04:36;1.52;;;1.05;;
33579;SDS011;19909;43.644;-79.438;2023-12-20T08:07:03;0.77;;;0.57;;
33579;SDS011;19909;43.644;-79.438;2023-12-20T08:09:29;1.05;;;0.93;;
33579;SDS011;19909;43.644;-79.438;2023-12-20T08:11:57;1.02;;;0.70;;
33579;SDS011;19909;43.644;-79.438;2023-12-20T08:14:25;0.90;;;0.65;;
33579;SDS011;19909;43.644;-79.438;2023-12-20T08:16:51;1.05;;;0.80;;
33579;SDS011;19909;43.644;-79.438;2023-12-20T08:19:17;0.68;;;0.57;;
33579;SDS011;19909;43.644;-79.438;2023-12-20T08:21:44;1.20;;;0.55;;
33579;SDS011;19909;43.644;-79.438;2023-12-20T08:24:10;1.10;;;0.80;;
33579;SDS011;19909;43.644;-79.438;2023-12-20T08:26:36;0.73;;;0.63;;
33579;SDS011;19909;43.644;-79.438;2023-12-20T08:29:02;0.85;;;0.60;;
33579;SDS011;19909;43.644;-79.438;2023-12-20T08:31:28;0.90;;;0.70;;
33579;SDS011;19909;43.644;-79.438;2023-12-20T08:33:55;0.85;;;0.60;;
33579;SDS011;19909;43.644;-79.438;2023-12-20T08:36:21;1.17;;;0.57;;
33579;SDS011;19909;43.644;-79.438;2023-12-20T08:38:48;1.48;;;0.60;;
33579;SDS011;19909;43.644;-79.438;2023-12-20T08:41:15;0.80;;;0.50;;
33579;SDS011;19909;43.644;-79.438;2023-12-20T08:43:42;2.20;;;0.50;;
33579;SDS011;19909;43.644;-79.438;2023-12-20T08:46:09;0.60;;;0.60;;
33579;SDS011;19909;43.644;-79.438;2023-12-20T08:48:35;0.98;;;0.80;;
33579;SDS011;19909;43.644;-79.438;2023-12-20T08:51:02;1.23;;;0.70;;
33579;SDS011;19909;43.644;-79.438;2023-12-20T08:53:29;0.57;;;0.50;;
33579;SDS011;19909;43.644;-79.438;2023-12-20T08:55:55;0.75;;;0.50;;
33579;SDS011;19909;43.644;-79.438;2023-12-20T08:58:23;0.77;;;0.50;;
33579;SDS011;19909;43.644;-79.438;2023-12-20T09:00:49;1.15;;;0.77;;
33579;SDS011;19909;43.644;-79.438;2023-12-20T09:03:15;1.20;;;0.80;;
33579;SDS011;19909;43.644;-79.438;2023-12-20T09:05:41;0.98;;;0.70;;
33579;SDS011;19909;43.644;-79.438;2023-12-20T09:08:08;1.60;;;0.88;;
33579;SDS011;19909;43.644;-79.438;2023-12-20T09:10:35;1.35;;;0.98;;
33579;SDS011;19909;43.644;-79.438;2023-12-20T09:13:02;1.08;;;0.68;;
33579;SDS011;19909;43.644;-79.438;2023-12-20T09:15:29;0.63;;;0.60;;
33579;SDS011;19909;43.644;-79.438;2023-12-20T09:17:56;0.80;;;0.57;;
33579;SDS011;19909;43.644;-79.438;2023-12-20T09:20:23;0.73;;;0.55;;
33579;SDS011;19909;43.644;-79.438;2023-12-20T09:22:49;0.93;;;0.60;;
33579;SDS011;19909;43.644;-79.438;2023-12-20T09:25:16;1.90;;;0.80;;
33579;SDS011;19909;43.644;-79.438;2023-12-20T09:27:43;1.08;;;0.75;;
33579;SDS011;19909;43.644;-79.438;2023-12-20T09:30:09;1.38;;;0.70;;
33579;SDS011;19909;43.644;-79.438;2023-12-20T09:32:35;1.00;;;0.60;;
33579;SDS011;19909;43.644;-79.438;2023-12-20T09:35:02;0.85;;;0.60;;
33579;SDS011;19909;43.644;-79.438;2023-12-20T09:37:30;0.60;;;0.50;;
33579;SDS011;19909;43.644;-79.438;2023-12-20T09:39:57;0.80;;;0.68;;
33579;SDS011;19909;43.644;-79.438;2023-12-20T09:42:25;1.00;;;0.60;;
33579;SDS011;19909;43.644;-79.438;2023-12-20T09:45:04;1.23;;;0.57;;
33579;SDS011;19909;43.644;-79.438;2023-12-20T09:47:35;1.88;;;0.90;;
33579;SDS011;19909;43.644;-79.438;2023-12-20T09:50:02;0.70;;;0.60;;
33579;SDS011;19909;43.644;-79.438;2023-12-20T09:52:28;1.05;;;0.80;;
33579;SDS011;19909;43.644;-79.438;2023-12-20T09:54:55;1.20;;;0.65;;
33579;SDS011;19909;43.644;-79.438;2023-12-20T09:57:22;1.63;;;0.77;;
33579;SDS011;19909;43.644;-79.438;2023-12-20T09:59:48;0.95;;;0.60;;
33579;SDS011;19909;43.644;-79.438;2023-12-20T10:02:15;1.02;;;0.70;;
33579;SDS011;19909;43.644;-79.438;2023-12-20T10:04:46;0.93;;;0.80;;
33579;SDS011;19909;43.644;-79.438;2023-12-20T10:07:15;0.98;;;0.47;;
33579;SDS011;19909;43.644;-79.438;2023-12-20T10:09:42;0.70;;;0.50;;
33579;SDS011;19909;43.644;-79.438;2023-12-20T10:12:09;0.90;;;0.50;;
33579;SDS011;19909;43.644;-79.438;2023-12-20T10:14:35;1.00;;;0.50;;
33579;SDS011;19909;43.644;-79.438;2023-12-20T10:17:02;0.45;;;0.40;;
33579;SDS011;19909;43.644;-79.438;2023-12-20T10:19:29;2.15;;;0.60;;
33579;SDS011;19909;43.644;-79.438;2023-12-20T10:21:55;1.00;;;0.50;;
33579;SDS011;19909;43.644;-79.438;2023-12-20T10:24:23;0.90;;;0.60;;
33579;SDS011;19909;43.644;-79.438;2023-12-20T10:26:55;0.70;;;0.60;;
33579;SDS011;19909;43.644;-79.438;2023-12-20T10:29:36;1.58;;;0.65;;
33579;SDS011;19909;43.644;-79.438;2023-12-20T10:32:37;0.90;;;0.57;;
33579;SDS011;19909;43.644;-79.438;2023-12-20T10:34:56;0.93;;;0.50;;
33579;SDS011;19909;43.644;-79.438;2023-12-20T10:37:24;1.23;;;0.68;;
33579;SDS011;19909;43.644;-79.438;2023-12-20T10:39:51;1.00;;;0.70;;
33579;SDS011;19909;43.644;-79.438;2023-12-20T10:42:30;0.75;;;0.40;;
33579;SDS011;19909;43.644;-79.438;2023-12-20T10:44:58;1.10;;;0.80;;
33579;SDS011;19909;43.644;-79.438;2023-12-20T10:47:25;0.98;;;0.60;;
33579;SDS011;19909;43.644;-79.438;2023-12-20T10:49:53;1.63;;;0.50;;
33579;SDS011;19909;43.644;-79.438;2023-12-20T10:52:22;0.82;;;0.50;;
33579;SDS011;19909;43.644;-79.438;2023-12-20T10:54:52;0.95;;;0.60;;
33579;SDS011;19909;43.644;-79.438;2023-12-20T10:57:18;1.50;;;0.70;;
33579;SDS011;19909;43.644;-79.438;2023-12-20T10:59:46;0.77;;;0.50;;
33579;SDS011;19909;43.644;-79.438;2023-12-20T11:02:14;0.60;;;0.50;;
33579;SDS011;19909;43.644;-79.438;2023-12-20T11:07:23;0.93;;;0.57;;
33579;SDS011;19909;43.644;-79.438;2023-12-20T11:10:17;1.23;;;0.50;;
33579;SDS011;19909;43.644;-79.438;2023-12-20T11:13:12;0.90;;;0.60;;
33579;SDS011;19909;43.644;-79.438;2023-12-20T11:16:02;1.10;;;0.73;;
33579;SDS011;19909;43.644;-79.438;2023-12-20T11:18:30;1.05;;;0.60;;
33579;SDS011;19909;43.644;-79.438;2023-12-20T11:21:00;1.33;;;0.60;;
33579;SDS011;19909;43.644;-79.438;2023-12-20T11:23:29;0.95;;;0.50;;
33579;SDS011;19909;43.644;-79.438;2023-12-20T11:25:56;0.93;;;0.60;;
33579;SDS011;19909;43.644;-79.438;2023-12-20T11:28:24;0.75;;;0.50;;
33579;SDS011;19909;43.644;-79.438;2023-12-20T11:30:55;1.27;;;0.80;;
33579;SDS011;19909;43.644;-79.438;2023-12-20T11:33:25;2.03;;;0.68;;
33579;SDS011;19909;43.644;-79.438;2023-12-20T11:35:59;1.92;;;0.80;;
33579;SDS011;19909;43.644;-79.438;2023-12-20T11:38:25;2.17;;;0.70;;
33579;SDS011;19909;43.644;-79.438;2023-12-20T11:40:53;0.85;;;0.50;;
33579;SDS011;19909;43.644;-79.438;2023-12-20T11:43:37;0.90;;;0.50;;
33579;SDS011;19909;43.644;-79.438;2023-12-20T11:46:04;1.42;;;0.65;;
33579;SDS011;19909;43.644;-79.438;2023-12-20T11:48:39;1.10;;;0.63;;
33579;SDS011;19909;43.644;-79.438;2023-12-20T11:51:09;0.98;;;0.50;;
33579;SDS011;19909;43.644;-79.438;2023-12-20T11:53:36;0.90;;;0.60;;
33579;SDS011;19909;43.644;-79.438;2023-12-20T11:56:03;0.60;;;0.52;;
33579;SDS011;19909;43.644;-79.438;2023-12-20T11:58:33;1.00;;;0.60;;
33579;SDS011;19909;43.644;-79.438;2023-12-20T12:01:00;1.45;;;0.60;;
33579;SDS011;19909;43.644;-79.438;2023-12-20T12:03:30;0.90;;;0.65;;
33579;SDS011;19909;43.644;-79.438;2023-12-20T12:05:58;0.95;;;0.60;;
33579;SDS011;19909;43.644;-79.438;2023-12-20T12:08:26;2.15;;;0.70;;
33579;SDS011;19909;43.644;-79.438;2023-12-20T12:10:52;1.35;;;0.65;;
33579;SDS011;19909;43.644;-79.438;2023-12-20T12:13:18;1.23;;;0.70;;
33579;SDS011;19909;43.644;-79.438;2023-12-20T12:15:44;1.50;;;0.77;;
33579;SDS011;19909;43.644;-79.438;2023-12-20T12:18:15;1.50;;;0.80;;
33579;SDS011;19909;43.644;-79.438;2023-12-20T12:20:42;2.65;;;0.68;;
33579;SDS011;19909;43.644;-79.438;2023-12-20T12:23:08;1.80;;;0.85;;
33579;SDS011;19909;43.644;-79.438;2023-12-20T12:25:35;1.45;;;0.70;;
33579;SDS011;19909;43.644;-79.438;2023-12-20T12:28:03;1.10;;;0.57;;
33579;SDS011;19909;43.644;-79.438;2023-12-20T12:30:29;1.80;;;0.60;;
33579;SDS011;19909;43.644;-79.438;2023-12-20T12:32:56;1.30;;;0.40;;
33579;SDS011;19909;43.644;-79.438;2023-12-20T12:35:23;0.82;;;0.47;;
33579;SDS011;19909;43.644;-79.438;2023-12-20T12:37:50;0.70;;;0.50;;
33579;SDS011;19909;43.644;-79.438;2023-12-20T12:40:17;0.82;;;0.60;;
33579;SDS011;19909;43.644;-79.438;2023-12-20T12:42:44;0.70;;;0.50;;
33579;SDS011;19909;43.644;-79.438;2023-12-20T12:45:11;1.40;;;0.70;;
33579;SDS011;19909;43.644;-79.438;2023-12-20T12:47:37;1.25;;;0.73;;
33579;SDS011;19909;43.644;-79.438;2023-12-20T12:50:04;1.20;;;1.00;;
33579;SDS011;19909;43.644;-79.438;2023-12-20T12:52:31;1.77;;;0.90;;
33579;SDS011;19909;43.644;-79.438;2023-12-20T12:54:58;3.03;;;0.77;;
33579;SDS011;19909;43.644;-79.438;2023-12-20T12:57:25;1.30;;;0.70;;
33579;SDS011;19909;43.644;-79.438;2023-12-20T12:59:52;1.20;;;0.73;;
33579;SDS011;19909;43.644;-79.438;2023-12-20T13:02:18;2.65;;;0.73;;
33579;SDS011;19909;43.644;-79.438;2023-12-20T13:04:44;3.63;;;0.90;;
33579;SDS011;19909;43.644;-79.438;2023-12-20T13:07:11;1.48;;;0.73;;
33579;SDS011;19909;43.644;-79.438;2023-12-20T13:09:38;1.58;;;0.77;;
33579;SDS011;19909;43.644;-79.438;2023-12-20T13:12:07;1.67;;;0.80;;
33579;SDS011;19909;43.644;-79.438;2023-12-20T13:14:34;0.70;;;0.60;;
33579;SDS011;19909;43.644;-79.438;2023-12-20T13:17:04;1.50;;;0.70;;
33579;SDS011;19909;43.644;-79.438;2023-12-20T13:19:31;1.80;;;0.95;;
33579;SDS011;19909;43.644;-79.438;2023-12-20T13:21:57;1.00;;;0.57;;
33579;SDS011;19909;43.644;-79.438;2023-12-20T13:24:23;1.52;;;0.70;;
33579;SDS011;19909;43.644;-79.438;2023-12-20T13:26:50;1.08;;;0.60;;
33579;SDS011;19909;43.644;-79.438;2023-12-20T13:29:16;0.77;;;0.63;;
33579;SDS011;19909;43.644;-79.438;2023-12-20T13:31:42;1.25;;;0.60;;
33579;SDS011;19909;43.644;-79.438;2023-12-20T13:34:09;1.80;;;0.70;;
33579;SDS011;19909;43.644;-79.438;2023-12-20T13:36:35;1.00;;;0.70;;
33579;SDS011;19909;43.644;-79.438;2023-12-20T13:39:01;1.30;;;0.80;;
33579;SDS011;19909;43.644;-79.438;2023-12-20T13:41:30;1.60;;;0.70;;
33579;SDS011;19909;43.644;-79.438;2023-12-20T13:43:56;1.20;;;1.08;;
33579;SDS011;19909;43.644;-79.438;2023-12-20T13:46:23;2.15;;;1.10;;
33579;SDS011;19909;43.644;-79.438;2023-12-20T13:48:50;2.13;;;0.95;;
33579;SDS011;19909;43.644;-79.438;2023-12-20T13:51:16;1.98;;;1.00;;
33579;SDS011;19909;43.644;-79.438;2023-12-20T13:53:43;4.50;;;1.23;;
33579;SDS011;19909;43.644;-79.438;2023-12-20T13:56:09;2.95;;;1.08;;
33579;SDS011;19909;43.644;-79.438;2023-12-20T13:58:35;2.05;;;0.82;;
33579;SDS011;19909;43.644;-79.438;2023-12-20T14:01:02;1.77;;;1.00;;
33579;SDS011;19909;43.644;-79.438;2023-12-20T14:03:28;1.70;;;1.10;;
33579;SDS011;19909;43.644;-79.438;2023-12-20T14:05:54;1.65;;;0.93;;
33579;SDS011;19909;43.644;-79.438;2023-12-20T14:08:21;1.92;;;1.20;;
33579;SDS011;19909;43.644;-79.438;2023-12-20T14:10:47;3.90;;;1.40;;
33579;SDS011;19909;43.644;-79.438;2023-12-20T14:13:13;3.70;;;1.05;;
33579;SDS011;19909;43.644;-79.438;2023-12-20T14:15:40;1.52;;;1.02;;
33579;SDS011;19909;43.644;-79.438;2023-12-20T14:18:06;2.67;;;1.27;;
33579;SDS011;19909;43.644;-79.438;2023-12-20T14:20:33;2.03;;;1.08;;